Aviation Digital Data Service (ADDS)

Output produced by METARs form (0756 UTC 20 March 2019)
found at http://www.aviationweather.gov/metar/data/
 
Forecast for: NVVV (BAUERFIELD/EFATE, VU)
Text: TAF NVVV 200430Z 2006/2106 08008KT 9999 SCT020 INTER 2008/2012 9000 -SHRA BKN018
Forecast period: 0600 to 0800 UTC 20 March 2019
Forecast type: FROM: standard forecast or significant change
Winds: from the E (80 degrees) at 9 MPH (8 knots; 4.1 m/s)
Visibility: 6 or more miles 10+ km)
Ceiling: at least 12,000 feet AGL
Clouds: scattered clouds at 2000 feet AGL
Weather: no significant weather forecast for this period
Text: BECMG 2008/2011 VRB03KT
Forecast period: 0800 to 1200 UTC 20 March 2019
Forecast type: TEMPORARY: The following changes expected for less than half the time period
Visibility: 6 miles (9 km)
Ceiling: 1800 feet AGL
Clouds: broken clouds at 1800 feet AGL
Weather: -SHRA  (light rain showers)
Text:
Forecast period: 0800 UTC 20 March 2019 to 0600 UTC 21 March 2019
Forecast type: BECOMING: Conditions expected to become as follows by 1100 UTC 20 March 2019
Winds: variable direction winds at 3 MPH (3 knots; 1.5 m/s)
Visibility: 6 or more miles 10+ km)
Ceiling: at least 12,000 feet AGL
Clouds: scattered clouds at 2000 feet AGL
Weather: no significant weather forecast for this period